createdAt,value
2023-02-11T00:00:52.611Z,88.49
2023-02-11T00:01:52.556Z,88.59
2023-02-11T00:02:52.494Z,88.49
2023-02-11T00:03:52.488Z,88.49
2023-02-11T00:04:52.426Z,88.49
2023-02-11T00:05:52.550Z,88.49
2023-02-11T00:06:52.423Z,88.49
2023-02-11T00:07:52.600Z,88.39
2023-02-11T00:08:52.381Z,88.39
2023-02-11T00:09:52.381Z,88.39
2023-02-11T00:10:52.416Z,88.39
2023-02-11T00:11:52.358Z,88.39
2023-02-11T00:12:52.356Z,88.39
2023-02-11T00:13:52.393Z,88.39
2023-02-11T00:14:52.346Z,88.49
2023-02-11T00:15:52.518Z,88.49
2023-02-11T00:16:52.351Z,88.59
2023-02-11T00:17:52.310Z,88.59
2023-02-11T00:18:52.292Z,88.59
2023-02-11T00:19:52.316Z,88.59
2023-02-11T00:20:52.239Z,88.70
2023-02-11T00:21:52.243Z,88.70
2023-02-11T00:22:52.249Z,88.70
2023-02-11T00:23:52.246Z,88.59
2023-02-11T00:24:52.261Z,88.70
2023-02-11T00:25:52.601Z,88.80
2023-02-11T00:26:52.164Z,88.84
2023-02-11T00:27:52.171Z,88.80
2023-02-11T00:28:52.143Z,88.80
2023-02-11T00:29:52.210Z,88.84
2023-02-11T00:30:52.269Z,88.95
2023-02-11T00:31:52.267Z,89.05
2023-02-11T00:32:52.132Z,89.01
2023-02-11T00:33:52.117Z,88.90
2023-02-11T00:34:52.143Z,88.90
2023-02-11T00:35:52.456Z,88.80
2023-02-11T00:36:52.048Z,88.80
2023-02-11T00:37:52.102Z,88.70
2023-02-11T00:38:52.030Z,88.70
2023-02-11T00:39:52.241Z,88.59
2023-02-11T00:40:52.027Z,88.49
2023-02-11T00:41:52.026Z,88.49
2023-02-11T00:42:51.992Z,88.59
2023-02-11T00:43:51.996Z,88.59
2023-02-11T00:44:51.958Z,88.59
2023-02-11T00:45:52.345Z,88.59
2023-02-11T00:46:51.984Z,88.59
2023-02-11T00:47:51.959Z,88.39
2023-02-11T00:48:52.055Z,88.39
2023-02-11T00:49:51.909Z,88.39
2023-02-11T00:50:51.894Z,88.49
2023-02-11T00:51:51.913Z,88.59
2023-02-11T00:52:51.872Z,88.49
2023-02-11T00:53:51.937Z,88.49
2023-02-11T00:54:51.844Z,88.49
2023-02-11T00:55:52.176Z,88.49
2023-02-11T00:56:51.858Z,88.49
2023-02-11T00:57:51.828Z,88.29
2023-02-11T00:58:51.833Z,88.29
2023-02-11T00:59:51.826Z,88.18
2023-02-11T01:00:51.816Z,88.18
2023-02-11T01:01:51.787Z,88.08
2023-02-11T01:02:51.860Z,88.18
2023-02-11T01:03:51.789Z,88.18
2023-02-11T01:04:51.777Z,88.29
2023-02-11T01:05:52.102Z,88.29
2023-02-11T01:06:51.726Z,88.29
2023-02-11T01:07:51.738Z,88.14
2023-02-11T01:08:51.737Z,88.14
2023-02-11T01:09:51.694Z,88.04
2023-02-11T01:10:51.677Z,87.93
2023-02-11T01:11:51.667Z,87.87
2023-02-11T01:12:51.646Z,88.08
2023-02-11T01:13:51.658Z,88.18
2023-02-11T01:14:51.697Z,88.18
2023-02-11T01:15:58.836Z,87.93
2023-02-11T01:16:51.637Z,88.08
2023-02-11T01:17:51.624Z,88.18
2023-02-11T01:18:51.643Z,88.29
2023-02-11T01:19:51.593Z,88.29
2023-02-11T01:20:51.632Z,88.18
2023-02-11T01:21:51.642Z,88.18
2023-02-11T01:22:51.536Z,88.18
2023-02-11T01:23:51.554Z,88.29
2023-02-11T01:24:51.538Z,88.39
2023-02-11T01:25:51.804Z,88.39
2023-02-11T01:26:51.487Z,88.39
2023-02-11T01:27:51.543Z,88.49
2023-02-11T01:28:51.475Z,88.49
2023-02-11T01:29:51.540Z,88.49
2023-02-11T01:30:51.500Z,88.49
2023-02-11T01:31:51.513Z,88.39
2023-02-11T01:32:51.426Z,88.39
2023-02-11T01:33:51.446Z,88.49
2023-02-11T01:34:51.391Z,88.39
2023-02-11T01:35:51.780Z,88.49
2023-02-11T01:36:51.454Z,88.49
2023-02-11T01:37:51.572Z,88.59
2023-02-11T01:38:51.390Z,88.39
2023-02-11T01:39:51.376Z,88.49
2023-02-11T01:40:51.345Z,88.49
2023-02-11T01:41:51.346Z,88.49
2023-02-11T01:42:51.365Z,88.59
2023-02-11T01:43:51.365Z,88.70
2023-02-11T01:44:51.321Z,88.70
2023-02-11T01:45:51.601Z,88.49
2023-02-11T01:46:51.291Z,88.39
2023-02-11T01:47:51.290Z,88.49
2023-02-11T01:48:51.344Z,88.49
2023-02-11T01:49:51.222Z,88.45
2023-02-11T01:50:51.222Z,88.39
2023-02-11T01:51:51.235Z,88.49
2023-02-11T01:52:51.213Z,88.35
2023-02-11T01:53:51.212Z,88.35
2023-02-11T01:54:51.239Z,88.24
2023-02-11T01:55:51.489Z,88.39
2023-02-11T01:56:51.154Z,88.39
2023-02-11T01:57:51.133Z,88.59
2023-02-11T01:58:51.133Z,88.70
2023-02-11T01:59:51.167Z,88.76
2023-02-11T02:00:51.131Z,88.76
2023-02-11T02:01:51.107Z,88.76
2023-02-11T02:02:51.120Z,88.86
2023-02-11T02:03:51.100Z,88.65
2023-02-11T02:04:51.109Z,88.76
2023-02-11T02:05:51.452Z,88.86
2023-02-11T02:06:51.048Z,88.90
2023-02-11T02:07:51.048Z,89.11
2023-02-11T02:08:51.019Z,89.22
2023-02-11T02:09:51.076Z,89.32
2023-02-11T02:10:51.022Z,89.52
2023-02-11T02:11:50.966Z,89.52
2023-02-11T02:12:50.985Z,89.73
2023-02-11T02:13:50.978Z,89.94
2023-02-11T02:14:51.137Z,90.04
2023-02-11T02:15:51.285Z,89.94
2023-02-11T02:16:50.948Z,89.83
2023-02-11T02:17:51.004Z,89.94
2023-02-11T02:18:50.931Z,89.94
2023-02-11T02:19:50.881Z,89.94
2023-02-11T02:20:50.981Z,90.04
2023-02-11T02:21:50.856Z,90.04
2023-02-11T02:22:50.852Z,90.35
2023-02-11T02:23:50.834Z,90.35
2023-02-11T02:24:50.834Z,90.35
2023-02-11T02:25:51.112Z,90.35
2023-02-11T02:26:50.920Z,90.35
2023-02-11T02:27:50.785Z,90.25
2023-02-11T02:28:50.810Z,89.94
2023-02-11T02:29:50.766Z,90.04
2023-02-11T02:30:50.845Z,90.14
2023-02-11T02:31:50.866Z,90.25
2023-02-11T02:32:50.804Z,90.35
2023-02-11T02:33:50.716Z,90.25
2023-02-11T02:34:50.720Z,90.14
2023-02-11T02:35:50.953Z,89.94
2023-02-11T02:36:50.696Z,89.73
2023-02-11T02:37:50.734Z,89.73
2023-02-11T02:38:50.706Z,89.83
2023-02-11T02:39:50.674Z,90.04
2023-02-11T02:40:50.661Z,90.04
2023-02-11T02:41:50.665Z,90.04
2023-02-11T02:42:50.650Z,89.94
2023-02-11T02:43:50.624Z,90.14
2023-02-11T02:44:50.640Z,90.25
2023-02-11T02:45:50.918Z,90.35
2023-02-11T02:46:50.689Z,90.45
2023-02-11T02:47:50.584Z,90.45
2023-02-11T02:48:50.554Z,90.35
2023-02-11T02:49:50.564Z,90.45
2023-02-11T02:50:50.556Z,90.45
2023-02-11T02:51:50.538Z,90.25
2023-02-11T02:52:50.553Z,90.25
2023-02-11T02:53:50.524Z,90.25
2023-02-11T02:54:50.517Z,90.25
2023-02-11T02:55:50.798Z,90.45
2023-02-11T02:56:50.468Z,90.45
2023-02-11T02:57:50.522Z,90.66
2023-02-11T02:58:50.477Z,90.76
2023-02-11T02:59:50.447Z,90.76
2023-02-11T03:00:50.482Z,91.01
2023-02-11T03:01:50.404Z,90.97
2023-02-11T03:02:50.439Z,90.86
2023-02-11T03:03:50.399Z,90.86
2023-02-11T03:04:50.382Z,90.97
2023-02-11T03:05:50.734Z,90.86
2023-02-11T03:06:50.378Z,90.91
2023-02-11T03:07:50.362Z,90.91
2023-02-11T03:08:50.331Z,91.01
2023-02-11T03:09:50.330Z,91.11
2023-02-11T03:10:50.364Z,91.11
2023-02-11T03:11:50.321Z,91.32
2023-02-11T03:12:50.310Z,91.32
2023-02-11T03:13:50.314Z,91.32
2023-02-11T03:14:50.270Z,91.32
2023-02-11T03:15:50.822Z,91.22
2023-02-11T03:16:51.959Z,91.32
2023-02-11T03:17:50.216Z,91.52
2023-02-11T03:18:50.242Z,91.42
2023-02-11T03:19:50.227Z,91.42
2023-02-11T03:20:50.196Z,91.52
2023-02-11T03:21:50.202Z,91.52
2023-02-11T03:22:50.198Z,91.63
2023-02-11T03:23:50.172Z,91.63
2023-02-11T03:24:50.173Z,91.63
2023-02-11T03:25:50.461Z,91.52
2023-02-11T03:26:50.470Z,91.52
2023-02-11T03:27:50.105Z,91.52
2023-02-11T03:28:50.134Z,91.32
2023-02-11T03:29:50.077Z,91.22
2023-02-11T03:30:50.150Z,91.11
2023-02-11T03:31:50.110Z,90.91
2023-02-11T03:32:50.103Z,90.91
2023-02-11T03:33:50.036Z,91.01
2023-02-11T03:34:50.036Z,91.22
2023-02-11T03:35:50.328Z,91.32
2023-02-11T03:36:50.019Z,91.32
2023-02-11T03:37:50.168Z,91.22
2023-02-11T03:38:50.015Z,91.11
2023-02-11T03:39:49.969Z,91.01
2023-02-11T03:40:49.999Z,90.91
2023-02-11T03:41:49.975Z,90.80
2023-02-11T03:42:49.989Z,90.80
2023-02-11T03:43:49.951Z,90.70
2023-02-11T03:44:49.949Z,90.80
2023-02-11T03:45:50.328Z,90.80
2023-02-11T03:46:49.928Z,90.80
2023-02-11T03:47:49.898Z,90.70
2023-02-11T03:48:49.896Z,90.70
2023-02-11T03:49:49.852Z,90.80
2023-02-11T03:50:49.892Z,90.80
2023-02-11T03:51:49.881Z,90.80
2023-02-11T03:52:49.857Z,90.80
2023-02-11T03:53:49.806Z,90.91
2023-02-11T03:54:49.826Z,91.01
2023-02-11T03:55:50.094Z,91.11
2023-02-11T03:56:49.847Z,91.22
2023-02-11T03:57:49.830Z,91.22
2023-02-11T03:58:49.789Z,91.42
2023-02-11T03:59:49.742Z,91.63
2023-02-11T04:00:49.822Z,91.73
2023-02-11T04:01:49.717Z,91.83
2023-02-11T04:02:49.797Z,92.04
2023-02-11T04:03:49.693Z,92.40
2023-02-11T04:04:49.720Z,92.70
2023-02-11T04:05:50.062Z,92.91
2023-02-11T04:06:49.673Z,93.12
2023-02-11T04:07:49.860Z,93.22
2023-02-11T04:08:49.651Z,93.43
2023-02-11T04:09:49.626Z,93.53
2023-02-11T04:10:49.653Z,93.84
2023-02-11T04:11:49.629Z,93.94
2023-02-11T04:12:49.627Z,94.04
2023-02-11T04:13:49.629Z,94.25
2023-02-11T04:14:49.584Z,94.46
2023-02-11T04:15:49.684Z,94.56
2023-02-11T04:16:49.554Z,94.77
2023-02-11T04:17:49.583Z,94.87
2023-02-11T04:18:49.574Z,94.97
2023-02-11T04:19:49.546Z,95.18
2023-02-11T04:20:49.496Z,95.18
2023-02-11T04:21:49.539Z,95.22
2023-02-11T04:22:49.475Z,95.43
2023-02-11T04:23:49.516Z,95.64
2023-02-11T04:24:49.459Z,95.95
2023-02-11T04:25:49.741Z,96.05
2023-02-11T04:26:49.427Z,96.26
2023-02-11T04:27:49.455Z,96.56
2023-02-11T04:28:49.441Z,96.77
2023-02-11T04:29:49.409Z,96.98
2023-02-11T04:30:49.446Z,97.08
2023-02-11T04:31:49.433Z,97.39
2023-02-11T04:32:49.368Z,97.50
2023-02-11T04:33:49.425Z,97.60
2023-02-11T04:34:49.356Z,97.75
2023-02-11T04:35:49.680Z,97.96
2023-02-11T04:36:49.330Z,97.96
2023-02-11T04:37:49.420Z,98.06
2023-02-11T04:38:49.291Z,98.27
2023-02-11T04:39:49.299Z,98.37
2023-02-11T04:40:49.270Z,98.47
2023-02-11T04:41:49.274Z,98.47
2023-02-11T04:42:49.268Z,98.57
2023-02-11T04:43:52.755Z,98.88
2023-02-11T04:44:49.231Z,98.99
2023-02-11T04:45:49.652Z,99.09
2023-02-11T04:46:49.204Z,99.19
2023-02-11T04:47:49.228Z,99.30
2023-02-11T04:48:49.200Z,99.40
2023-02-11T04:49:49.182Z,99.65
2023-02-11T04:50:49.218Z,99.65
2023-02-11T04:51:49.727Z,99.76
2023-02-11T04:52:49.159Z,99.76
2023-02-11T04:53:49.134Z,99.71
2023-02-11T04:54:49.160Z,99.82
2023-02-11T04:55:49.345Z,99.61
2023-02-11T04:56:49.123Z,99.61
2023-02-11T04:57:49.088Z,99.61
2023-02-11T04:58:49.089Z,99.51
2023-02-11T04:59:49.083Z,99.65
2023-02-11T05:00:49.083Z,99.61
2023-02-11T05:01:49.102Z,99.71
2023-02-11T05:02:49.050Z,99.61
2023-02-11T05:03:49.050Z,99.51
2023-02-11T05:04:49.022Z,99.51
2023-02-11T05:05:49.383Z,99.51
2023-02-11T05:06:49.041Z,99.51
2023-02-11T05:07:48.975Z,99.61
2023-02-11T05:08:48.944Z,99.61
2023-02-11T05:09:48.946Z,99.51
2023-02-11T05:10:48.929Z,99.51
2023-02-11T05:11:48.959Z,99.61
2023-02-11T05:12:48.908Z,99.71
2023-02-11T05:13:48.922Z,99.71
2023-02-11T05:14:48.894Z,99.82
2023-02-11T05:15:49.297Z,99.82
2023-02-11T05:16:48.909Z,99.82
2023-02-11T05:17:48.884Z,99.71
2023-02-11T05:18:51.426Z,99.71
2023-02-11T05:19:48.891Z,99.82
2023-02-11T05:20:48.836Z,99.82
2023-02-11T05:22:01.624Z,99.71
2023-02-11T05:22:49.803Z,99.82
2023-02-11T05:23:48.790Z,99.92
2023-02-11T05:24:48.787Z,99.92
2023-02-11T05:25:49.088Z,99.99
2023-02-11T05:26:48.746Z,99.99
2023-02-11T05:27:48.817Z,99.99
2023-02-11T05:28:48.717Z,99.92
2023-02-11T05:29:48.754Z,99.99
2023-02-11T05:30:48.725Z,99.99
2023-02-11T05:31:48.694Z,99.99
2023-02-11T05:32:48.784Z,99.99
2023-02-11T05:33:48.705Z,99.99
2023-02-11T05:34:48.674Z,99.99
2023-02-11T05:35:48.925Z,99.99
2023-02-11T05:36:48.645Z,99.99
2023-02-11T05:37:48.890Z,99.99
2023-02-11T05:38:48.627Z,99.99
2023-02-11T05:39:48.633Z,99.99
2023-02-11T05:40:48.606Z,99.99
2023-02-11T05:41:48.580Z,99.99
2023-02-11T05:42:48.578Z,99.99
2023-02-11T05:43:48.579Z,99.99
2023-02-11T05:44:50.555Z,99.99
2023-02-11T05:45:48.823Z,99.99
2023-02-11T05:46:48.512Z,99.99
2023-02-11T05:47:48.531Z,99.99
2023-02-11T05:48:48.538Z,99.99
2023-02-11T05:49:48.517Z,99.99
2023-02-11T05:50:48.471Z,99.99
2023-02-11T05:51:48.503Z,99.99
2023-02-11T05:52:48.467Z,99.99
2023-02-11T05:53:48.472Z,99.92
2023-02-11T05:54:48.423Z,99.71
2023-02-11T05:55:48.645Z,99.82
2023-02-11T05:56:48.402Z,99.82
2023-02-11T05:57:48.446Z,99.92
2023-02-11T05:58:48.371Z,99.92
2023-02-11T05:59:48.450Z,99.92
2023-02-11T06:00:48.404Z,99.92
2023-02-11T06:01:48.382Z,99.82
2023-02-11T06:02:48.390Z,99.82
2023-02-11T06:03:48.392Z,99.71
2023-02-11T06:04:48.302Z,99.82
2023-02-11T06:05:48.599Z,99.82
2023-02-11T06:06:48.339Z,99.82
2023-02-11T06:07:48.281Z,99.82
2023-02-11T06:08:48.316Z,99.92
2023-02-11T06:09:48.319Z,99.82
2023-02-11T06:10:48.245Z,99.82
2023-02-11T06:11:48.234Z,99.71
2023-02-11T06:12:48.249Z,99.71
2023-02-11T06:13:48.251Z,99.71
2023-02-11T06:14:48.253Z,99.71
2023-02-11T06:15:48.526Z,99.61
2023-02-11T06:16:48.164Z,99.61
2023-02-11T06:17:48.168Z,99.46
2023-02-11T06:18:48.193Z,99.35
2023-02-11T06:19:48.190Z,99.25
2023-02-11T06:20:48.142Z,99.19
2023-02-11T06:21:48.143Z,99.19
2023-02-11T06:22:48.095Z,99.19
2023-02-11T06:23:48.095Z,99.15
2023-02-11T06:25:00.836Z,99.15
2023-02-11T06:25:49.677Z,99.15
2023-02-11T06:26:48.072Z,98.94
2023-02-11T06:27:48.086Z,98.84
2023-02-11T06:28:48.094Z,98.84
2023-02-11T06:29:48.075Z,98.84
2023-02-11T06:30:48.172Z,98.84
2023-02-11T06:31:48.155Z,98.74
2023-02-11T06:32:48.123Z,98.63
2023-02-11T06:33:47.988Z,98.63
2023-02-11T06:34:48.029Z,98.63
2023-02-11T06:35:48.071Z,98.63
2023-02-11T06:36:47.966Z,98.63
2023-02-11T06:37:47.965Z,98.63
2023-02-11T06:38:47.959Z,98.63
2023-02-11T06:39:47.930Z,98.63
2023-02-11T06:40:47.924Z,98.53
2023-02-11T06:41:47.919Z,98.43
2023-02-11T06:42:47.887Z,98.22
2023-02-11T06:43:47.872Z,98.22
2023-02-11T06:44:47.852Z,98.11
2023-02-11T06:45:47.937Z,98.22
2023-02-11T06:46:47.913Z,98.22
2023-02-11T06:47:47.847Z,98.22
2023-02-11T06:48:47.837Z,98.32
2023-02-11T06:49:47.820Z,98.22
2023-02-11T06:50:47.802Z,98.11
2023-02-11T06:51:47.777Z,98.11
2023-02-11T06:52:47.754Z,98.11
2023-02-11T06:53:47.759Z,98.11
2023-02-11T06:54:47.752Z,98.11
2023-02-11T06:55:47.826Z,98.01
2023-02-11T06:56:47.704Z,98.11
2023-02-11T06:57:47.749Z,98.01
2023-02-11T06:58:47.754Z,98.11
2023-02-11T06:59:47.722Z,98.11
2023-02-11T07:00:47.691Z,98.22
2023-02-11T07:01:47.684Z,98.11
2023-02-11T07:02:47.686Z,98.22
2023-02-11T07:03:47.849Z,98.32
2023-02-11T07:04:47.614Z,98.22
2023-02-11T07:05:47.649Z,98.32
2023-02-11T07:06:47.603Z,98.32
2023-02-11T07:07:47.610Z,98.32
2023-02-11T07:08:47.600Z,98.32
2023-02-11T07:09:47.598Z,98.32
2023-02-11T07:10:47.557Z,98.43
2023-02-11T07:11:47.578Z,98.43
2023-02-11T07:12:47.560Z,98.43
2023-02-11T07:13:47.569Z,98.53
2023-02-11T07:14:47.531Z,98.53
2023-02-11T07:15:47.613Z,98.53
2023-02-11T07:16:54.521Z,98.32
2023-02-11T07:17:47.517Z,98.43
2023-02-11T07:18:47.494Z,98.43
2023-02-11T07:19:47.583Z,98.28
2023-02-11T07:20:47.466Z,98.32
2023-02-11T07:21:47.459Z,98.18
2023-02-11T07:22:47.467Z,98.28
2023-02-11T07:23:47.417Z,98.28
2023-02-11T07:24:47.416Z,98.07
2023-02-11T07:25:47.413Z,98.07
2023-02-11T07:26:47.395Z,98.18
2023-02-11T07:27:47.453Z,98.18
2023-02-11T07:28:47.349Z,98.07
2023-02-11T07:29:47.372Z,98.28
2023-02-11T07:30:47.374Z,98.18
2023-02-11T07:31:47.453Z,98.18
2023-02-11T07:32:47.365Z,98.38
2023-02-11T07:33:47.306Z,98.43
2023-02-11T07:34:47.296Z,98.63
2023-02-11T07:35:47.278Z,98.58
2023-02-11T07:36:47.259Z,98.58
2023-02-11T07:37:47.318Z,98.58
2023-02-11T07:38:47.251Z,98.63
2023-02-11T07:39:47.228Z,98.79
2023-02-11T07:40:47.207Z,98.69
2023-02-11T07:41:47.209Z,98.69
2023-02-11T07:42:47.225Z,98.69
2023-02-11T07:43:47.214Z,98.69
2023-02-11T07:44:50.286Z,98.69
2023-02-11T07:45:47.159Z,98.90
2023-02-11T07:46:47.190Z,98.94
2023-02-11T07:47:47.192Z,99.00
2023-02-11T07:48:47.124Z,99.10
2023-02-11T07:49:47.121Z,99.10
2023-02-11T07:50:47.091Z,99.10
2023-02-11T07:51:47.129Z,99.10
2023-02-11T07:52:47.112Z,99.10
2023-02-11T07:53:47.112Z,99.10
2023-02-11T07:54:47.076Z,99.10
2023-02-11T07:55:47.064Z,99.00
2023-02-11T07:56:47.108Z,99.00
2023-02-11T07:57:47.065Z,99.00
2023-02-11T07:58:47.011Z,99.00
2023-02-11T07:59:47.015Z,99.00
2023-02-11T08:00:47.070Z,99.00
2023-02-11T08:01:47.021Z,99.00
2023-02-11T08:02:47.037Z,99.00
2023-02-11T08:03:46.987Z,99.10
2023-02-11T08:04:46.991Z,99.21
2023-02-11T08:05:46.968Z,99.21
2023-02-11T08:06:46.920Z,99.21
2023-02-11T08:07:46.981Z,98.96
2023-02-11T08:08:46.894Z,98.96
2023-02-11T08:09:46.916Z,98.85
2023-02-11T08:10:46.862Z,98.90
2023-02-11T08:11:46.875Z,98.90
2023-02-11T08:12:46.890Z,98.96
2023-02-11T08:13:46.861Z,98.96
2023-02-11T08:14:46.830Z,98.96
2023-02-11T08:15:46.849Z,98.85
2023-02-11T08:16:46.920Z,98.85
2023-02-11T08:17:46.800Z,98.65
2023-02-11T08:18:46.817Z,98.54
2023-02-11T08:19:46.782Z,98.54
2023-02-11T08:20:46.777Z,98.54
2023-02-11T08:21:46.747Z,98.54
2023-02-11T08:22:46.768Z,98.54
2023-02-11T08:23:46.788Z,98.44
2023-02-11T08:24:46.701Z,98.44
2023-02-11T08:25:46.729Z,98.54
2023-02-11T08:26:47.008Z,98.54
2023-02-11T08:27:46.670Z,98.75
2023-02-11T08:28:46.680Z,98.75
2023-02-11T08:29:46.698Z,98.65
2023-02-11T08:30:46.646Z,98.75
2023-02-11T08:31:46.781Z,98.85
2023-02-11T08:32:46.648Z,98.85
2023-02-11T08:33:46.616Z,98.65
2023-02-11T08:34:46.658Z,98.65
2023-02-11T08:35:46.572Z,98.65
2023-02-11T08:36:46.571Z,98.65
2023-02-11T08:37:46.579Z,98.54
2023-02-11T08:38:46.622Z,98.65
2023-02-11T08:39:46.600Z,98.65
2023-02-11T08:40:46.608Z,98.65
2023-02-11T08:41:46.537Z,98.75
2023-02-11T08:42:46.503Z,98.65
2023-02-11T08:43:46.519Z,98.75
2023-02-11T08:44:46.552Z,98.85
2023-02-11T08:45:46.564Z,98.85
2023-02-11T08:46:46.478Z,98.85
2023-02-11T08:47:46.461Z,98.85
2023-02-11T08:48:46.444Z,98.85
2023-02-11T08:49:46.471Z,98.85
2023-02-11T08:50:46.440Z,98.85
2023-02-11T08:51:46.419Z,98.85
2023-02-11T08:52:46.405Z,98.85
2023-02-11T08:53:46.402Z,98.70
2023-02-11T08:54:46.421Z,98.60
2023-02-11T08:55:46.346Z,98.50
2023-02-11T08:56:46.385Z,98.39
2023-02-11T08:57:46.374Z,98.33
2023-02-11T08:58:46.326Z,98.39
2023-02-11T08:59:46.369Z,98.29
2023-02-11T09:00:46.317Z,98.19
2023-02-11T09:01:46.312Z,98.19
2023-02-11T09:02:46.312Z,98.13
2023-02-11T09:03:46.354Z,98.23
2023-02-11T09:04:46.257Z,98.33
2023-02-11T09:05:46.595Z,98.44
2023-02-11T09:06:46.265Z,98.44
2023-02-11T09:07:46.238Z,98.54
2023-02-11T09:08:46.520Z,98.39
2023-02-11T09:09:46.263Z,98.39
2023-02-11T09:10:46.273Z,98.39
2023-02-11T09:11:46.268Z,98.39
2023-02-11T09:12:46.243Z,98.39
2023-02-11T09:13:46.178Z,98.39
2023-02-11T09:14:46.198Z,98.39
2023-02-11T09:15:46.168Z,98.39
2023-02-11T09:16:46.339Z,98.39
2023-02-11T09:17:46.123Z,98.29
2023-02-11T09:18:46.117Z,98.08
2023-02-11T09:19:46.105Z,97.88
2023-02-11T09:20:46.107Z,97.77
2023-02-11T09:21:46.097Z,97.98
2023-02-11T09:22:46.070Z,97.98
2023-02-11T09:23:46.055Z,97.83
2023-02-11T09:24:46.048Z,97.73
2023-02-11T09:25:46.029Z,97.63
2023-02-11T09:26:46.077Z,97.63
2023-02-11T09:27:45.982Z,97.52
2023-02-11T09:28:46.005Z,97.52
2023-02-11T09:29:45.992Z,97.52
2023-02-11T09:30:46.046Z,97.63
2023-02-11T09:31:46.087Z,97.63
2023-02-11T09:32:45.963Z,97.52
2023-02-11T09:33:45.913Z,97.21
2023-02-11T09:34:45.938Z,97.21
2023-02-11T09:35:45.911Z,97.11
2023-02-11T09:36:45.897Z,97.11
2023-02-11T09:37:45.921Z,97.21
2023-02-11T09:38:45.891Z,97.31
2023-02-11T09:39:45.837Z,97.31
2023-02-11T09:40:45.854Z,97.31
2023-02-11T09:41:45.852Z,97.17
2023-02-11T09:42:45.880Z,97.17
2023-02-11T09:43:45.799Z,97.06
2023-02-11T09:44:45.804Z,96.96
2023-02-11T09:45:45.829Z,96.50
2023-02-11T09:46:45.822Z,96.09
2023-02-11T09:47:45.755Z,95.48
2023-02-11T09:48:45.756Z,95.33
2023-02-11T09:49:45.763Z,95.33
2023-02-11T09:50:45.731Z,95.23
2023-02-11T09:51:45.702Z,95.02
2023-02-11T09:52:45.745Z,94.71
2023-02-11T09:53:45.688Z,94.51
2023-02-11T09:54:45.735Z,94.60
2023-02-11T09:55:45.686Z,94.51
2023-02-11T09:56:45.659Z,94.51
2023-02-11T09:57:45.653Z,94.30
2023-02-11T09:58:45.722Z,94.40
2023-02-11T09:59:45.653Z,94.09
2023-02-11T10:00:45.675Z,94.45
2023-02-11T10:01:45.630Z,94.85
2023-02-11T10:02:45.594Z,95.06
2023-02-11T10:03:45.605Z,95.17
2023-02-11T10:04:45.590Z,95.27
2023-02-11T10:05:45.592Z,95.27
2023-02-11T10:06:45.541Z,95.06
2023-02-11T10:07:45.527Z,95.17
2023-02-11T10:08:45.562Z,95.52
2023-02-11T10:09:45.502Z,95.62
2023-02-11T10:10:45.518Z,96.03
2023-02-11T10:11:45.503Z,96.24
2023-02-11T10:12:45.504Z,96.34
2023-02-11T10:13:45.454Z,96.24
2023-02-11T10:14:45.482Z,96.45
2023-02-11T10:15:45.514Z,96.45
2023-02-11T10:16:45.445Z,96.55
2023-02-11T10:17:45.435Z,96.34
2023-02-11T10:18:45.420Z,96.45
2023-02-11T10:19:45.420Z,96.41
2023-02-11T10:20:45.387Z,96.14
2023-02-11T10:21:45.379Z,96.24
2023-02-11T10:22:45.377Z,96.24
2023-02-11T10:23:45.390Z,96.30
2023-02-11T10:24:45.343Z,96.41
2023-02-11T10:25:45.696Z,96.30
2023-02-11T10:26:45.332Z,96.20
2023-02-11T10:27:45.288Z,96.09
2023-02-11T10:28:45.501Z,95.99
2023-02-11T10:29:45.583Z,95.74
2023-02-11T10:30:45.423Z,95.58
2023-02-11T10:31:45.351Z,95.68
2023-02-11T10:32:45.238Z,95.58
2023-02-11T10:33:45.247Z,95.58
2023-02-11T10:34:45.273Z,95.48
2023-02-11T10:35:45.198Z,95.58
2023-02-11T10:36:45.220Z,95.58
2023-02-11T10:37:45.206Z,95.64
2023-02-11T10:38:45.243Z,95.43
2023-02-11T10:39:45.151Z,95.53
2023-02-11T10:40:45.231Z,95.43
2023-02-11T10:41:45.136Z,95.53
2023-02-11T10:42:45.121Z,95.43
2023-02-11T10:43:45.120Z,95.43
2023-02-11T10:44:45.127Z,95.37
2023-02-11T10:45:45.143Z,95.48
2023-02-11T10:46:45.193Z,95.58
2023-02-11T10:47:45.081Z,95.68
2023-02-11T10:48:45.081Z,95.78
2023-02-11T10:49:45.063Z,95.89
2023-02-11T10:50:45.269Z,95.99
2023-02-11T10:51:45.038Z,96.09
2023-02-11T10:52:45.072Z,96.20
2023-02-11T10:53:45.009Z,96.20
2023-02-11T10:54:45.024Z,96.30
2023-02-11T10:55:44.972Z,96.20
2023-02-11T10:56:44.962Z,96.20
2023-02-11T10:57:44.971Z,96.30
2023-02-11T10:58:44.968Z,96.20
2023-02-11T10:59:44.926Z,96.20
2023-02-11T11:00:44.973Z,96.09
2023-02-11T11:01:44.935Z,96.20
2023-02-11T11:02:44.900Z,96.30
2023-02-11T11:03:44.873Z,96.41
2023-02-11T11:04:45.081Z,96.30
2023-02-11T11:05:44.918Z,96.20
2023-02-11T11:06:44.867Z,96.30
2023-02-11T11:07:44.853Z,96.25
2023-02-11T11:08:44.842Z,96.25
2023-02-11T11:09:44.797Z,96.15
2023-02-11T11:10:44.826Z,95.95
2023-02-11T11:11:44.778Z,95.74
2023-02-11T11:12:44.826Z,95.64
2023-02-11T11:13:44.784Z,95.53
2023-02-11T11:14:44.795Z,95.74
2023-02-11T11:15:44.820Z,95.74
2023-02-11T11:16:44.738Z,95.78
2023-02-11T11:17:44.733Z,95.95
2023-02-11T11:18:44.876Z,95.95
2023-02-11T11:19:44.714Z,96.05
2023-02-11T11:20:44.687Z,95.84
2023-02-11T11:21:44.668Z,95.84
2023-02-11T11:22:44.695Z,95.84
2023-02-11T11:23:44.665Z,95.84
2023-02-11T11:24:44.807Z,95.84
2023-02-11T11:25:44.618Z,95.74
2023-02-11T11:26:44.620Z,95.84
2023-02-11T11:27:44.593Z,95.84
2023-02-11T11:28:44.625Z,95.74
2023-02-11T11:29:44.590Z,95.74
2023-02-11T11:30:44.609Z,95.74
2023-02-11T11:31:44.570Z,95.53
2023-02-11T11:32:44.581Z,95.64
2023-02-11T11:33:44.561Z,95.84
2023-02-11T11:34:44.537Z,95.84
2023-02-11T11:35:44.547Z,95.95
2023-02-11T11:36:44.524Z,95.84
2023-02-11T11:37:44.477Z,95.95
2023-02-11T11:38:44.503Z,95.95
2023-02-11T11:39:44.468Z,96.05
2023-02-11T11:40:44.489Z,96.05
2023-02-11T11:41:44.455Z,95.95
2023-02-11T11:42:44.430Z,96.05
2023-02-11T11:43:44.402Z,95.95
2023-02-11T11:44:44.462Z,96.05
2023-02-11T11:45:44.377Z,96.05
2023-02-11T11:46:44.441Z,96.15
2023-02-11T11:47:44.402Z,96.15
2023-02-11T11:48:44.357Z,96.15
2023-02-11T11:49:44.354Z,96.05
2023-02-11T11:50:44.365Z,96.05
2023-02-11T11:51:44.336Z,95.95
2023-02-11T11:52:44.327Z,95.95
2023-02-11T11:53:44.288Z,96.05
2023-02-11T11:54:44.288Z,96.05
2023-02-11T11:55:44.264Z,95.84
2023-02-11T11:57:19.906Z,95.74
2023-02-11T11:57:44.276Z,95.74
2023-02-11T11:58:44.278Z,95.64
2023-02-11T11:59:44.229Z,95.64
2023-02-11T12:00:44.207Z,95.64
2023-02-11T12:01:44.295Z,95.64
2023-02-11T12:02:44.246Z,95.64
2023-02-11T12:03:44.189Z,95.74
2023-02-11T12:04:44.197Z,95.74
2023-02-11T12:05:44.157Z,95.84
2023-02-11T12:06:44.168Z,95.84
2023-02-11T12:07:44.160Z,95.70
2023-02-11T12:08:44.115Z,95.64
2023-02-11T12:09:44.137Z,95.59
2023-02-11T12:10:44.112Z,95.53
2023-02-11T12:11:44.157Z,95.49
2023-02-11T12:12:46.548Z,95.49
2023-02-11T12:13:44.103Z,95.59
2023-02-11T12:14:44.061Z,95.59
2023-02-11T12:15:44.081Z,95.49
2023-02-11T12:16:44.060Z,95.49
2023-02-11T12:17:44.013Z,95.28
2023-02-11T12:18:47.235Z,95.18
2023-02-11T12:19:43.993Z,95.18
2023-02-11T12:20:44.365Z,95.08
2023-02-11T12:21:43.971Z,94.87
2023-02-11T12:22:43.969Z,94.77
2023-02-11T12:23:43.944Z,94.77
2023-02-11T12:24:43.923Z,94.77
2023-02-11T12:25:43.920Z,95.08
2023-02-11T12:26:43.914Z,95.28
2023-02-11T12:28:54.964Z,95.28
2023-02-11T12:29:54.937Z,95.28
2023-02-11T12:30:54.989Z,95.18
2023-02-11T12:31:55.009Z,95.08
2023-02-11T12:32:54.919Z,95.08
2023-02-11T12:33:54.927Z,95.08
2023-02-11T12:34:54.899Z,95.28
2023-02-11T12:35:54.900Z,95.28
2023-02-11T12:36:54.900Z,94.98
2023-02-11T12:37:54.878Z,95.08
2023-02-11T12:38:54.820Z,95.08
2023-02-11T12:39:54.849Z,94.98
2023-02-11T12:40:54.831Z,94.98
2023-02-11T12:41:54.793Z,95.08
2023-02-11T12:42:54.794Z,94.98
2023-02-11T12:43:54.803Z,94.98
2023-02-11T12:44:54.760Z,95.08
2023-02-11T12:45:54.805Z,95.39
2023-02-11T12:46:54.729Z,95.49
2023-02-11T12:47:54.756Z,95.70
2023-02-11T12:48:54.704Z,95.49
2023-02-11T12:49:54.704Z,95.49
2023-02-11T12:50:54.732Z,95.59
2023-02-11T12:51:54.731Z,95.59
2023-02-11T12:52:54.655Z,95.39
2023-02-11T12:53:54.655Z,95.28